Terminal Aerodrome Forecast
Issued by NWS

Home | Current Version | Previous Version | Text Only | Print | Product List | Glossary On
Versions: 1 2 3 4 5 6 7 8 9 10 11 12 13 14 15 16 17
000
FTUS43 KAPX 241120
TAFPLN
TAF
KPLN 241120Z 2412/2512 27007KT P6SM BKN120
     FM241500 23008KT P6SM BKN110
     FM242300 20004KT 5SM -RA OVC050
     FM250300 14004KT 4SM RA SCT005 OVC025
     FM250700 11010KT 1 1/2SM +RA BR OVC004=

USA.gov is the U.S. government's official web portal to all federal, state and local government web resources and services.